Time;durP1;ratioP1;P1;durP2;ratioP2;P2;SDS_P1;SDS_P2;PMS_P1;PMS_P2;Temp;Humidity;BMP_temperature;BMP_pressure;BME280_temperature;BME280_humidity;BME280_pressure;Samples;Min_cycle;Max_cycle;Signal;HPM_P1;HPM_P2
2023/01/21 00:02:04;;;;;;;37.90;20.08;;;-0.40;99.90;;;;;;6233366;22;20011;-76
2023/01/21 00:04:33;;;;;;;35.70;17.73;;;-0.30;99.90;;;;;;6256785;22;20071;-76
2023/01/21 00:06:59;;;;;;;38.63;19.20;;;-0.50;99.90;;;;;;6287999;22;20026;-77
2023/01/21 00:09:25;;;;;;;42.25;19.60;;;-0.90;99.90;;;;;;6286757;22;20034;-77
2023/01/21 00:11:51;;;;;;;36.60;18.55;;;-0.50;99.90;;;;;;6286991;22;20043;-75
2023/01/21 00:14:17;;;;;;;36.40;18.83;;;-0.50;99.90;;;;;;6288315;22;20002;-77
2023/01/21 00:16:42;;;;;;;38.35;18.27;;;-0.30;99.90;;;;;;6287762;22;20015;-76
2023/01/21 00:19:08;;;;;;;38.28;18.60;;;2.20;99.90;;;;;;6288044;22;20070;-79
2023/01/21 00:21:34;;;;;;;40.92;20.77;;;-0.40;99.90;;;;;;6314100;22;20010;-77
2023/01/21 00:23:59;;;;;;;36.15;17.60;;;-1.70;99.90;;;;;;6287685;22;20631;-76
2023/01/21 00:26:25;;;;;;;39.67;19.27;;;1.10;99.90;;;;;;6262020;22;20011;-76
2023/01/21 00:28:51;;;;;;;44.08;19.80;;;-1.00;99.90;;;;;;6261812;22;20026;-75
2023/01/21 00:31:16;;;;;;;39.30;18.20;;;2.10;99.90;;;;;;6286237;22;20015;-76
2023/01/21 00:33:42;;;;;;;44.42;19.70;;;-0.60;99.90;;;;;;6313133;22;20067;-75
2023/01/21 00:36:13;;;;;;;42.55;19.10;;;-0.60;99.90;;;;;;6286325;22;20021;-76
2023/01/21 00:38:39;;;;;;;38.70;19.13;;;-0.60;99.90;;;;;;6312697;22;20021;-76
2023/01/21 00:41:11;;;;;;;40.65;18.52;;;-0.50;99.90;;;;;;6286353;22;20019;-76
2023/01/21 00:43:38;;;;;;;41.08;18.33;;;-0.60;99.90;;;;;;6312452;22;20362;-75
2023/01/21 00:46:04;;;;;;;40.58;18.60;;;-1.30;99.90;;;;;;6312703;22;20079;-76
2023/01/21 00:48:30;;;;;;;43.35;20.55;;;-0.30;99.90;;;;;;6290013;22;20040;-76
2023/01/21 00:50:59;;;;;;;38.92;18.70;;;-0.50;99.90;;;;;;6290230;22;20250;-75
2023/01/21 00:53:26;;;;;;;38.33;17.88;;;1.90;99.90;;;;;;6290162;22;20271;-75
2023/01/21 00:56:10;;;;;;;38.97;19.10;;;0.60;99.90;;;;;;6313792;22;20045;-75
2023/01/21 00:58:36;;;;;;;43.03;19.08;;;-0.40;99.90;;;;;;6314565;22;20033;-76
2023/01/21 01:01:08;;;;;;;44.50;20.73;;;-1.20;99.90;;;;;;6315516;22;20198;-75
2023/01/21 01:03:34;;;;;;;42.78;19.70;;;0.80;99.90;;;;;;6316130;22;20074;-76
2023/01/21 01:06:08;;;;;;;41.30;19.02;;;-1.00;99.90;;;;;;6290706;22;20045;-76
2023/01/21 01:08:34;;;;;;;47.97;20.55;;;0.00;99.90;;;;;;6310564;22;20019;-76
2023/01/21 01:11:00;;;;;;;47.22;20.65;;;-0.90;99.90;;;;;;6310498;22;20261;-74
2023/01/21 01:13:27;;;;;;;41.00;19.88;;;-0.90;99.90;;;;;;6286713;22;20014;-75
2023/01/21 01:15:54;;;;;;;42.28;20.92;;;-0.60;99.90;;;;;;6286919;22;20052;-75
2023/01/21 01:18:21;;;;;;;48.65;21.20;;;-1.40;99.90;;;;;;6284403;22;20022;-75
2023/01/21 01:20:47;;;;;;;42.20;19.65;;;-1.20;99.90;;;;;;6285762;22;20025;-74
2023/01/21 01:23:13;;;;;;;46.95;20.00;;;-1.20;99.90;;;;;;6313187;22;20350;-75
2023/01/21 01:25:52;;;;;;;44.75;19.95;;;1.20;99.90;;;;;;6286963;22;20019;-76
2023/01/21 01:28:18;;;;;;;41.53;18.77;;;-1.90;99.90;;;;;;6289300;22;20078;-75
2023/01/21 01:30:59;;;;;;;39.90;19.63;;;-1.20;99.90;;;;;;6285845;22;20026;-75
2023/01/21 01:33:26;;;;;;;42.85;19.40;;;2.20;99.90;;;;;;6285504;22;20014;-75
2023/01/21 01:35:52;;;;;;;44.58;19.83;;;-0.40;99.90;;;;;;6286794;22;20305;-75
2023/01/21 01:38:24;;;;;;;42.50;19.70;;;-1.40;99.90;;;;;;6285597;22;20022;-74
2023/01/21 01:40:51;;;;;;;44.80;20.85;;;-0.70;99.90;;;;;;6259107;22;20011;-75
2023/01/21 01:43:22;;;;;;;42.70;19.00;;;-0.90;99.90;;;;;;6258784;22;20018;-74
2023/01/21 01:45:48;;;;;;;46.97;21.55;;;-0.50;99.90;;;;;;6310482;22;20073;-74
2023/01/21 01:48:25;;;;;;;49.80;21.83;;;-0.70;99.90;;;;;;6259759;22;20011;-74
2023/01/21 01:51:13;;;;;;;;;;;;;;;;;;;;;
2023/01/21 01:53:51;;;;;;;52.58;22.40;;;-0.60;99.90;;;;;;6308774;22;20037;-75
2023/01/21 01:56:16;;;;;;;49.90;21.63;;;-0.30;99.90;;;;;;6259862;22;20015;-75
2023/01/21 01:58:44;;;;;;;46.13;22.08;;;-0.80;99.90;;;;;;6285213;22;20095;-74
2023/01/21 02:01:10;;;;;;;52.47;22.40;;;-1.00;99.90;;;;;;6310469;22;20018;-74
2023/01/21 02:03:44;;;;;;;42.83;20.27;;;0.10;99.90;;;;;;6308940;22;20218;-74
2023/01/21 02:06:12;;;;;;;42.72;19.33;;;-0.90;99.90;;;;;;6309553;22;20090;-74
2023/01/21 02:08:38;;;;;;;43.55;20.88;;;-0.80;99.90;;;;;;6282422;22;20045;-74
2023/01/21 02:11:39;;;;;;;42.45;20.20;;;-0.30;99.90;;;;;;6255693;22;20034;-74
2023/01/21 02:14:05;;;;;;;42.38;19.83;;;-0.20;99.90;;;;;;6259666;22;20015;-74
2023/01/21 02:16:51;;;;;;;44.25;21.02;;;-1.20;99.90;;;;;;6307169;22;20015;-73
2023/01/21 02:23:17;;;;;;;43.47;18.60;;;-1.20;99.90;;;;;;6299213;22;20015;-74
2023/01/21 02:26:13;;;;;;;43.97;19.52;;;-1.30;99.90;;;;;;6285181;22;20023;-74
2023/01/21 02:29:33;;;;;;;44.45;20.27;;;-0.70;99.90;;;;;;6284150;22;20190;-74
2023/01/21 02:32:21;;;;;;;41.42;19.85;;;-1.50;99.90;;;;;;6161265;23;20027;-73
2023/01/21 02:35:11;;;;;;;42.88;20.02;;;-0.40;99.90;;;;;;6138609;23;20358;-74
2023/01/21 02:37:59;;;;;;;43.00;18.48;;;-1.60;99.90;;;;;;6266104;22;20018;-73
2023/01/21 02:40:41;;;;;;;43.40;20.23;;;-1.30;99.90;;;;;;6284000;22;20015;-74
2023/01/21 02:43:25;;;;;;;47.17;19.38;;;-1.20;99.90;;;;;;6310997;22;20017;-73
2023/01/21 02:46:01;;;;;;;42.37;19.00;;;-0.70;99.90;;;;;;6284583;22;20186;-73
2023/01/21 02:49:03;;;;;;;50.33;21.30;;;-1.40;99.90;;;;;;6282923;22;20217;-74
2023/01/21 02:51:40;;;;;;;42.45;19.75;;;-1.00;99.90;;;;;;6282672;22;20018;-74
2023/01/21 02:54:14;;;;;;;37.00;18.25;;;-1.30;99.90;;;;;;6282476;22;20026;-73
2023/01/21 02:56:41;;;;;;;37.60;19.17;;;-1.10;99.90;;;;;;6281841;22;20286;-74
2023/01/21 02:59:07;;;;;;;43.20;20.65;;;-1.20;99.90;;;;;;6309402;22;20094;-73
2023/01/21 03:01:52;;;;;;;47.20;21.45;;;-1.50;99.90;;;;;;6281119;22;20011;-75
2023/01/21 03:04:33;;;;;;;45.33;21.88;;;-1.30;99.90;;;;;;6306196;22;20023;-75
2023/01/21 03:07:28;;;;;;;47.15;20.98;;;-1.70;99.90;;;;;;6311921;22;20029;-73
2023/01/21 03:10:00;;;;;;;42.85;19.05;;;-1.50;99.90;;;;;;6286143;22;20027;-73
2023/01/21 03:12:57;;;;;;;51.00;22.38;;;-1.10;99.90;;;;;;6314290;22;20062;-74
2023/01/21 03:18:21;;;;;;;50.08;21.25;;;-2.20;99.90;;;;;;6311647;22;20053;-73
2023/01/21 03:21:05;;;;;;;47.00;19.88;;;-0.90;99.90;;;;;;6314143;22;20135;-74
2023/01/21 03:24:00;;;;;;;50.45;22.55;;;-1.30;99.90;;;;;;6290488;22;20081;-73
2023/01/21 03:26:37;;;;;;;44.70;20.77;;;-1.00;99.90;;;;;;6308978;22;20018;-73
2023/01/21 03:29:11;;;;;;;61.20;25.70;;;-0.40;99.90;;;;;;6289679;22;20070;-74
2023/01/21 03:31:39;;;;;;;51.88;23.13;;;-1.20;99.90;;;;;;6314094;22;20007;-73
2023/01/21 03:34:08;;;;;;;51.83;21.85;;;-0.50;99.90;;;;;;6316124;22;20062;-73
2023/01/21 03:36:43;;;;;;;56.60;24.20;;;-0.40;99.90;;;;;;6287414;22;20021;-74
2023/01/21 03:39:20;;;;;;;61.67;24.27;;;0.20;99.90;;;;;;6312476;22;20032;-75
2023/01/21 03:41:46;;;;;;;65.57;24.88;;;-0.40;99.90;;;;;;6312449;22;20325;-73
2023/01/21 03:44:12;;;;;;;51.92;21.80;;;-1.00;99.90;;;;;;6286460;22;20019;-74
2023/01/21 03:47:09;;;;;;;45.15;18.92;;;-0.90;99.90;;;;;;6312018;22;20496;-73
2023/01/21 03:49:44;;;;;;;51.33;20.40;;;-0.10;99.90;;;;;;6289340;22;20014;-73
2023/01/21 03:52:12;;;;;;;61.13;21.80;;;0.40;99.90;;;;;;6315085;22;20013;-73
2023/01/21 03:54:39;;;;;;;55.65;21.50;;;0.80;99.90;;;;;;6314462;22;20011;-74
2023/01/21 03:57:05;;;;;;;63.95;22.00;;;0.40;99.90;;;;;;6314163;22;20007;-74
2023/01/21 03:59:30;;;;;;;54.03;21.00;;;-0.70;99.90;;;;;;6289555;22;20017;-74
2023/01/21 04:01:56;;;;;;;48.70;21.02;;;-0.20;99.90;;;;;;6315305;22;20255;-73
2023/01/21 04:04:22;;;;;;;55.92;20.10;;;-0.60;99.90;;;;;;6290144;22;20353;-74
2023/01/21 04:06:47;;;;;;;49.85;19.90;;;-0.40;99.90;;;;;;6315151;22;20089;-74
2023/01/21 04:09:13;;;;;;;64.20;21.83;;;-0.10;99.90;;;;;;6315335;22;20324;-75
2023/01/21 04:11:39;;;;;;;58.78;22.30;;;1.50;99.90;;;;;;6287312;22;20416;-73
2023/01/21 04:14:05;;;;;;;59.42;23.08;;;0.00;99.90;;;;;;6263065;22;20061;-74
2023/01/21 04:16:30;;;;;;;51.83;20.85;;;0.20;99.90;;;;;;6313403;22;20037;-73
2023/01/21 04:18:58;;;;;;;52.15;20.73;;;-0.20;99.90;;;;;;6312773;22;20040;-73
2023/01/21 04:21:24;;;;;;;56.03;22.30;;;0.70;99.90;;;;;;6288523;22;20090;-74
2023/01/21 04:23:50;;;;;;;44.53;19.92;;;-0.40;99.90;;;;;;6288812;22;20065;-74
2023/01/21 04:26:15;;;;;;;48.08;20.50;;;-0.40;99.90;;;;;;6315192;22;20015;-74
2023/01/21 04:28:41;;;;;;;51.50;19.88;;;-0.80;99.90;;;;;;6265647;22;20010;-76
2023/01/21 04:31:07;;;;;;;46.75;18.83;;;1.80;99.90;;;;;;6316206;22;20074;-76
2023/01/21 04:33:33;;;;;;;53.05;19.88;;;-0.10;99.90;;;;;;6314989;22;20015;-74
2023/01/21 04:35:59;;;;;;;49.22;19.48;;;-0.30;99.90;;;;;;6315276;22;20056;-74
2023/01/21 04:38:26;;;;;;;49.83;18.33;;;-0.30;99.90;;;;;;6317365;22;20437;-74
2023/01/21 04:40:54;;;;;;;47.00;19.05;;;0.10;99.90;;;;;;6314828;22;20017;-74
2023/01/21 04:43:20;;;;;;;55.00;20.17;;;-0.30;99.90;;;;;;6266624;22;20010;-73
2023/01/21 04:45:46;;;;;;;45.30;19.88;;;0.00;99.90;;;;;;6290466;22;20289;-73
2023/01/21 04:48:12;;;;;;;48.25;20.45;;;-2.10;99.90;;;;;;6291839;22;20343;-76
2023/01/21 04:50:37;;;;;;;50.15;20.00;;;1.20;99.90;;;;;;6316482;22;20038;-73
2023/01/21 04:53:03;;;;;;;46.72;18.35;;;0.10;99.90;;;;;;6290930;22;20006;-72
2023/01/21 04:55:29;;;;;;;50.55;19.52;;;-0.40;99.90;;;;;;6266133;22;20079;-73
2023/01/21 04:57:54;;;;;;;43.53;18.48;;;0.30;99.90;;;;;;6240096;22;20033;-74
2023/01/21 05:00:20;;;;;;;49.22;19.88;;;2.20;99.90;;;;;;6291128;22;20018;-75
2023/01/21 05:02:48;;;;;;;47.83;19.40;;;0.10;99.90;;;;;;6290273;22;20042;-74
2023/01/21 05:05:14;;;;;;;49.15;20.33;;;-0.20;99.90;;;;;;6292371;22;20010;-73
2023/01/21 05:07:40;;;;;;;52.05;20.30;;;2.70;99.90;;;;;;6285951;22;20019;-74
2023/01/21 05:10:06;;;;;;;48.67;19.20;;;-0.10;99.90;;;;;;6312082;22;20018;-74
2023/01/21 05:12:32;;;;;;;42.22;19.23;;;0.20;99.90;;;;;;6284943;22;20076;-75
2023/01/21 05:14:57;;;;;;;46.97;19.17;;;-0.30;99.90;;;;;;6310752;22;20197;-75
2023/01/21 05:17:23;;;;;;;52.13;20.23;;;-0.30;99.90;;;;;;6283837;22;20014;-75
2023/01/21 05:19:49;;;;;;;45.42;18.92;;;1.50;99.90;;;;;;6287029;22;20045;-75
2023/01/21 05:22:16;;;;;;;48.58;19.48;;;1.90;99.90;;;;;;6311470;22;20011;-73
2023/01/21 05:24:41;;;;;;;40.38;19.08;;;0.60;99.90;;;;;;6286082;22;20011;-74
2023/01/21 05:27:08;;;;;;;51.10;20.15;;;-0.60;99.90;;;;;;6259903;22;20071;-73
2023/01/21 05:29:33;;;;;;;51.28;19.30;;;1.20;99.90;;;;;;6312459;22;20380;-74
2023/01/21 05:31:59;;;;;;;46.50;19.55;;;1.00;99.90;;;;;;6284646;22;20003;-74
2023/01/21 05:34:24;;;;;;;59.63;22.25;;;0.60;99.90;;;;;;6258969;22;20014;-74
2023/01/21 05:36:50;;;;;;;48.53;19.88;;;0.00;99.90;;;;;;6260779;22;20015;-73
2023/01/21 05:39:16;;;;;;;53.72;20.48;;;2.20;99.90;;;;;;6310502;22;20069;-75
2023/01/21 05:41:41;;;;;;;48.67;20.15;;;0.00;99.90;;;;;;6283626;22;20226;-74
2023/01/21 05:44:08;;;;;;;50.30;18.50;;;-0.10;99.90;;;;;;6310605;22;20011;-74
2023/01/21 05:46:37;;;;;;;50.38;20.88;;;0.40;99.90;;;;;;6309712;22;20034;-73
2023/01/21 05:49:03;;;;;;;49.58;19.67;;;-0.80;99.90;;;;;;6281969;22;20031;-74
2023/01/21 05:51:28;;;;;;;46.72;18.23;;;-0.60;99.90;;;;;;6283715;22;20007;-74
2023/01/21 05:53:54;;;;;;;46.78;19.42;;;-0.40;99.90;;;;;;6284536;22;20294;-74
2023/01/21 05:56:20;;;;;;;46.38;18.67;;;-0.90;99.90;;;;;;6285327;22;20014;-73
2023/01/21 05:58:46;;;;;;;46.13;18.67;;;0.70;99.90;;;;;;6285391;22;20022;-74
2023/01/21 06:01:21;;;;;;;48.83;19.23;;;-0.40;99.90;;;;;;6283377;22;20018;-75
2023/01/21 06:04:05;;;;;;;46.15;18.40;;;-0.40;99.90;;;;;;6261499;22;20116;-75
2023/01/21 06:06:31;;;;;;;48.63;19.60;;;-0.60;99.90;;;;;;6257372;22;20046;-74
2023/01/21 06:08:57;;;;;;;48.70;20.65;;;-1.10;99.90;;;;;;6283459;22;20027;-74
2023/01/21 06:11:40;;;;;;;51.22;22.20;;;2.40;99.90;;;;;;6285427;22;20019;-73
2023/01/21 06:14:06;;;;;;;48.08;19.40;;;-0.40;99.90;;;;;;6284189;22;20338;-76
2023/01/21 06:16:32;;;;;;;52.00;20.65;;;;;;;;;;6258351;22;20063;-73
2023/01/21 06:18:58;;;;;;;48.65;20.48;;;-0.60;99.90;;;;;;6260206;22;20090;-75
2023/01/21 06:21:24;;;;;;;46.75;19.05;;;-1.20;99.90;;;;;;6235301;22;20233;-73
2023/01/21 06:23:49;;;;;;;47.08;19.65;;;-1.50;99.90;;;;;;6258236;22;20022;-74
2023/01/21 06:26:15;;;;;;;47.75;20.15;;;-1.00;99.90;;;;;;6286088;22;20324;-74
2023/01/21 06:28:40;;;;;;;52.47;20.73;;;-0.30;99.90;;;;;;6260324;22;20069;-74
2023/01/21 06:31:06;;;;;;;57.47;21.90;;;-0.80;99.90;;;;;;6285636;22;20014;-75
2023/01/21 06:33:32;;;;;;;53.40;22.38;;;-0.80;99.90;;;;;;6259947;22;20015;-73
2023/01/21 06:35:58;;;;;;;52.15;20.98;;;-1.00;99.90;;;;;;6258735;22;20007;-73
2023/01/21 06:38:23;;;;;;;57.13;23.35;;;-1.00;99.90;;;;;;6259068;22;20461;-74
2023/01/21 06:40:49;;;;;;;61.25;23.42;;;-1.30;99.90;;;;;;6283167;22;20082;-74
2023/01/21 06:43:15;;;;;;;51.25;21.50;;;-1.50;99.90;;;;;;6260877;22;20011;-73
2023/01/21 06:45:40;;;;;;;60.78;21.77;;;1.30;99.90;;;;;;6258997;22;20046;-74
2023/01/21 06:48:06;;;;;;;56.80;22.20;;;-0.70;99.90;;;;;;6258419;22;20019;-73
2023/01/21 06:50:32;;;;;;;51.58;21.85;;;-0.70;99.90;;;;;;6284072;22;20007;-73
2023/01/21 06:52:57;;;;;;;54.15;23.08;;;-0.50;99.90;;;;;;6283829;22;20015;-74
2023/01/21 06:55:23;;;;;;;54.67;21.50;;;-0.60;99.90;;;;;;6283994;22;20016;-74
2023/01/21 06:57:49;;;;;;;48.80;22.17;;;-0.80;99.90;;;;;;6283085;22;20070;-74
2023/01/21 07:00:15;;;;;;;51.28;22.17;;;-0.60;99.90;;;;;;6285348;22;20037;-73
2023/01/21 07:02:40;;;;;;;49.25;21.02;;;-0.70;99.90;;;;;;6285504;22;20051;-72
2023/01/21 07:05:07;;;;;;;53.88;20.80;;;-0.90;99.90;;;;;;6258414;22;20018;-74
2023/01/21 07:07:32;;;;;;;49.72;22.50;;;-0.30;99.90;;;;;;6289647;22;20049;-75
2023/01/21 07:09:58;;;;;;;53.55;22.27;;;-1.20;99.90;;;;;;6285608;22;20306;-72
2023/01/21 07:12:24;;;;;;;47.72;20.30;;;-0.70;99.90;;;;;;6258007;22;20015;-73
2023/01/21 07:14:49;;;;;;;46.55;20.58;;;-2.20;99.90;;;;;;6308280;22;20007;-72
2023/01/21 07:17:15;;;;;;;48.80;21.67;;;-1.00;99.90;;;;;;6284676;22;20019;-73
2023/01/21 07:19:41;;;;;;;45.92;20.80;;;-1.40;99.90;;;;;;6311370;22;20011;-73
2023/01/21 07:22:17;;;;;;;53.50;21.77;;;-0.80;99.90;;;;;;6310460;22;20070;-72
2023/01/21 07:24:43;;;;;;;50.50;21.50;;;-0.90;99.90;;;;;;6284797;22;20053;-73
2023/01/21 07:27:15;;;;;;;55.30;20.95;;;-1.30;99.90;;;;;;6309838;22;20019;-72
2023/01/21 07:29:41;;;;;;;54.55;23.20;;;-0.90;99.90;;;;;;6284821;22;20019;-72
2023/01/21 07:32:07;;;;;;;48.53;21.08;;;-1.80;99.90;;;;;;6307924;22;20331;-73
2023/01/21 07:34:32;;;;;;;49.15;21.23;;;-0.70;99.90;;;;;;6282016;22;20015;-74
2023/01/21 07:36:58;;;;;;;60.13;21.20;;;-1.00;99.90;;;;;;6306806;22;20025;-73
2023/01/21 07:39:24;;;;;;;48.17;19.88;;;-0.90;99.90;;;;;;6232003;22;20359;-72
2023/01/21 07:41:50;;;;;;;53.72;21.67;;;-0.90;99.90;;;;;;6257151;22;20011;-72
2023/01/21 07:44:18;;;;;;;49.10;21.20;;;-0.90;99.90;;;;;;6282623;22;20011;-72
2023/01/21 07:46:44;;;;;;;52.78;21.10;;;-1.20;99.90;;;;;;6308728;22;20019;-72
2023/01/21 07:49:16;;;;;;;48.88;20.40;;;;;;;;;;6257264;22;20448;-72
2023/01/21 07:51:45;;;;;;;56.72;22.23;;;-2.00;99.90;;;;;;6282021;22;20007;-72
2023/01/21 07:54:12;;;;;;;49.90;22.75;;;-1.00;99.90;;;;;;6308477;22;20125;-73
2023/01/21 07:56:37;;;;;;;55.53;23.75;;;-1.90;99.90;;;;;;6283491;22;20268;-73
2023/01/21 07:59:03;;;;;;;60.15;23.33;;;-1.10;99.90;;;;;;6307577;22;20007;-73
2023/01/21 08:01:30;;;;;;;54.78;22.75;;;;;;;;;;6281985;22;20014;-74
2023/01/21 08:03:57;;;;;;;60.60;23.38;;;-0.80;99.90;;;;;;6255754;22;20015;-72
2023/01/21 08:06:40;;;;;;;52.30;21.25;;;-1.80;99.90;;;;;;6309078;22;20007;-73
2023/01/21 08:09:07;;;;;;;56.75;22.70;;;-0.90;99.90;;;;;;6284490;22;20022;-72
2023/01/21 08:11:32;;;;;;;52.45;21.20;;;-2.10;99.90;;;;;;6258164;22;20019;-72
2023/01/21 08:13:58;;;;;;;55.05;23.17;;;-0.90;99.90;;;;;;6231629;22;20296;-73
2023/01/21 08:16:25;;;;;;;56.45;22.40;;;-1.00;99.90;;;;;;6256795;22;20013;-73
2023/01/21 08:18:51;;;;;;;54.72;22.55;;;-0.80;99.90;;;;;;6259688;22;20036;-74
2023/01/21 08:21:40;;;;;;;57.13;23.00;;;-0.80;99.90;;;;;;6259306;22;20011;-73
2023/01/21 08:24:06;;;;;;;54.03;22.67;;;-0.40;99.90;;;;;;6286390;22;20023;-73
2023/01/21 08:26:31;;;;;;;58.67;22.77;;;-0.60;99.90;;;;;;6234250;22;20014;-72
2023/01/21 08:28:57;;;;;;;54.63;21.92;;;;;;;;;;6258910;22;20011;-72
2023/01/21 08:31:23;;;;;;;53.40;22.23;;;0.30;99.90;;;;;;6232423;22;20023;-74
2023/01/21 08:33:49;;;;;;;59.53;23.00;;;-0.90;99.90;;;;;;6230282;22;20007;-71
2023/01/21 08:36:14;;;;;;;51.58;21.73;;;-1.10;99.90;;;;;;6281914;22;20015;-72
2023/01/21 08:38:40;;;;;;;54.42;22.40;;;-1.00;99.90;;;;;;6258980;22;20007;-72
2023/01/21 08:41:06;;;;;;;51.20;22.90;;;-0.50;99.90;;;;;;6257066;22;20019;-71
2023/01/21 08:43:31;;;;;;;53.42;22.65;;;-1.00;99.90;;;;;;6234263;22;20344;-73
2023/01/21 08:46:00;;;;;;;55.35;23.88;;;-0.50;99.90;;;;;;6258330;22;20333;-73
2023/01/21 08:48:30;;;;;;;50.63;21.52;;;-0.90;99.90;;;;;;6259291;22;20432;-73
2023/01/21 08:50:59;;;;;;;56.60;23.63;;;-0.90;99.90;;;;;;6259361;22;20237;-73
2023/01/21 08:53:31;;;;;;;54.22;22.17;;;-0.20;99.90;;;;;;6284951;22;20020;-73
2023/01/21 08:55:59;;;;;;;51.33;22.88;;;-0.90;99.90;;;;;;6259613;22;20015;-71
2023/01/21 08:58:25;;;;;;;53.70;22.30;;;0.40;99.90;;;;;;6258950;22;20008;-72
2023/01/21 09:00:50;;;;;;;50.47;21.45;;;1.00;99.90;;;;;;6259365;22;20018;-73
2023/01/21 09:03:47;;;;;;;54.08;22.02;;;-0.50;99.90;;;;;;6282482;22;20049;-73
2023/01/21 09:06:36;;;;;;;48.38;22.02;;;-0.40;99.90;;;;;;6283528;22;20330;-75
2023/01/21 09:09:02;;;;;;;51.60;22.02;;;0.00;99.90;;;;;;6258546;22;20034;-72
2023/01/21 09:12:56;;;;;;;45.75;21.67;;;0.00;99.90;;;;;;6286101;22;20030;-73
2023/01/21 09:15:17;;;;;;;47.83;21.83;;;0.40;99.90;;;;;;6258909;22;20197;-73
2023/01/21 09:17:43;;;;;;;44.63;21.30;;;2.40;99.90;;;;;;6261289;22;20368;-72
2023/01/21 09:20:09;;;;;;;47.85;21.85;;;3.40;99.90;;;;;;6286283;22;20112;-73
2023/01/21 09:22:35;;;;;;;48.95;21.92;;;0.70;99.90;;;;;;6261013;22;20078;-73
2023/01/21 09:25:09;;;;;;;48.53;21.38;;;1.20;99.90;;;;;;6258564;22;20019;-72
2023/01/21 09:27:34;;;;;;;42.22;20.60;;;2.00;99.90;;;;;;6235084;22;20309;-74
2023/01/21 09:30:00;;;;;;;39.38;18.10;;;2.70;99.90;;;;;;6283911;22;20018;-73
2023/01/21 09:32:25;;;;;;;42.42;19.50;;;3.00;99.90;;;;;;6207733;22;20296;-73
2023/01/21 09:38:00;;;;;;;32.05;15.57;;;3.80;99.90;;;;;;6283813;22;20011;-73
2023/01/21 09:40:44;;;;;;;29.67;15.80;;;3.80;99.90;;;;;;6258369;22;20033;-74
2023/01/21 09:43:16;;;;;;;28.48;14.50;;;4.50;99.90;;;;;;6283064;22;20030;-74
2023/01/21 09:45:44;;;;;;;24.90;14.05;;;4.10;99.90;;;;;;6285277;22;20026;-73
2023/01/21 09:48:18;;;;;;;27.38;14.95;;;4.10;99.90;;;;;;6281227;22;20092;-73
2023/01/21 09:50:48;;;;;;;22.30;13.00;;;4.80;99.90;;;;;;6283844;22;20011;-73
2023/01/21 09:53:31;;;;;;;24.23;13.52;;;4.80;99.90;;;;;;6282964;22;20230;-75
2023/01/21 09:55:59;;;;;;;22.17;12.75;;;4.80;99.90;;;;;;6259339;22;20011;-73
2023/01/21 09:58:44;;;;;;;22.17;13.98;;;5.00;99.90;;;;;;6283999;22;20080;-73
2023/01/21 10:01:29;;;;;;;25.08;14.10;;;5.50;99.90;;;;;;6256878;22;20430;-75
2023/01/21 10:04:22;;;;;;;27.98;15.32;;;5.60;99.90;;;;;;6283953;22;20585;-73
2023/01/21 10:06:58;;;;;;;22.90;13.70;;;4.30;99.90;;;;;;6259706;22;20019;-73
2023/01/21 10:09:27;;;;;;;22.27;14.65;;;5.90;99.90;;;;;;6301264;22;20120;-75
2023/01/21 10:11:58;;;;;;;23.75;13.30;;;6.10;99.90;;;;;;6283366;22;20018;-75
2023/01/21 10:14:49;;;;;;;24.63;14.15;;;6.30;99.90;;;;;;6308461;22;20015;-75
2023/01/21 10:17:38;;;;;;;23.88;13.90;;;6.00;99.90;;;;;;6309946;22;20100;-74
2023/01/21 10:20:19;;;;;;;24.60;13.30;;;6.40;99.90;;;;;;6282991;22;20019;-75
2023/01/21 10:23:11;;;;;;;21.27;12.57;;;6.70;99.90;;;;;;6309211;22;20042;-73
2023/01/21 10:25:40;;;;;;;22.15;14.30;;;6.60;99.90;;;;;;6308439;22;20261;-73
2023/01/21 10:28:24;;;;;;;20.20;13.20;;;6.70;99.90;;;;;;6308632;22;20011;-75
2023/01/21 10:30:57;;;;;;;23.52;13.50;;;5.20;99.90;;;;;;6283583;22;20412;-75
2023/01/21 10:33:39;;;;;;;20.15;12.30;;;5.80;99.90;;;;;;6307956;22;20015;-75
2023/01/21 10:36:27;;;;;;;20.58;13.13;;;5.60;99.90;;;;;;6257752;22;20042;-73
2023/01/21 10:39:25;;;;;;;20.48;13.38;;;5.80;99.90;;;;;;6283833;22;20053;-76
2023/01/21 10:41:53;;;;;;;18.35;11.52;;;5.30;99.90;;;;;;6309570;22;20066;-73
2023/01/21 10:44:24;;;;;;;17.65;11.82;;;7.00;99.90;;;;;;6283564;22;20018;-72
2023/01/21 10:47:11;;;;;;;18.70;12.25;;;6.20;99.90;;;;;;6283685;22;20015;-73
2023/01/21 10:50:01;;;;;;;16.98;11.40;;;6.40;99.90;;;;;;6310114;22;20293;-73
2023/01/21 10:52:47;;;;;;;16.38;11.27;;;6.40;99.90;;;;;;6309238;22;20007;-75
2023/01/21 10:55:21;;;;;;;20.95;12.18;;;6.60;99.90;;;;;;6309018;22;20015;-75
2023/01/21 10:57:50;;;;;;;19.33;13.80;;;6.40;99.90;;;;;;6284554;22;20007;-75
2023/01/21 11:00:37;;;;;;;17.08;12.20;;;6.70;99.90;;;;;;6280580;22;20015;-74
2023/01/21 11:03:37;;;;;;;16.88;11.15;;;6.30;99.90;;;;;;6283689;22;20011;-75
2023/01/21 11:06:24;;;;;;;18.83;13.05;;;7.10;99.90;;;;;;6282494;22;20011;-76
2023/01/21 11:09:12;;;;;;;16.77;11.30;;;6.70;99.90;;;;;;6286651;22;20041;-74
2023/01/21 11:11:41;;;;;;;18.10;12.50;;;6.70;99.90;;;;;;6308646;22;20047;-75
2023/01/21 11:14:09;;;;;;;19.48;12.52;;;6.90;99.90;;;;;;6257906;22;20043;-77
2023/01/21 11:16:43;;;;;;;16.13;11.18;;;6.80;99.90;;;;;;6282867;22;20016;-77
2023/01/21 11:19:21;;;;;;;18.58;11.30;;;7.10;99.90;;;;;;6281886;22;20021;-76
2023/01/21 11:22:20;;;;;;;15.40;10.82;;;7.20;99.90;;;;;;6283371;22;20007;-76
2023/01/21 11:24:51;;;;;;;15.13;10.55;;;7.50;99.90;;;;;;6309853;22;20071;-76
2023/01/21 11:27:34;;;;;;;14.43;10.68;;;7.80;99.90;;;;;;6308571;22;20015;-77
2023/01/21 11:30:00;;;;;;;14.13;10.60;;;7.30;99.90;;;;;;6283321;22;20217;-75
2023/01/21 11:32:28;;;;;;;16.20;11.45;;;6.60;99.90;;;;;;6281828;22;20019;-76
2023/01/21 11:35:14;;;;;;;14.23;10.55;;;6.60;99.90;;;;;;6308798;22;20113;-75
2023/01/21 11:37:44;;;;;;;14.32;10.30;;;6.80;99.90;;;;;;6282886;22;20082;-75
2023/01/21 11:40:28;;;;;;;14.73;9.75;;;6.50;99.90;;;;;;6283020;22;20351;-77
2023/01/21 11:43:03;;;;;;;14.52;10.13;;;6.00;99.90;;;;;;6285466;22;20221;-76
2023/01/21 11:45:35;;;;;;;13.65;9.90;;;6.30;99.90;;;;;;6309978;22;20018;-75
2023/01/21 11:48:28;;;;;;;12.35;9.23;;;6.00;99.90;;;;;;6281913;22;20061;-75
2023/01/21 11:51:05;;;;;;;14.48;9.65;;;6.40;99.90;;;;;;6305936;22;20066;-75
2023/01/21 11:53:45;;;;;;;15.18;10.95;;;5.50;99.90;;;;;;6282517;22;20085;-75
2023/01/21 11:56:15;;;;;;;13.27;9.93;;;3.70;99.90;;;;;;6283442;22;20182;-75
2023/01/21 11:58:41;;;;;;;13.25;9.40;;;5.70;99.90;;;;;;6258623;22;20007;-74
2023/01/21 12:01:20;;;;;;;14.95;10.38;;;5.90;99.90;;;;;;6306527;22;20245;-74
2023/01/21 12:03:52;;;;;;;11.55;8.75;;;6.10;99.90;;;;;;6283713;22;20011;-73
2023/01/21 12:09:48;;;;;;;10.90;7.28;;;7.80;99.90;;;;;;6185104;22;20038;-77
2023/01/21 12:12:47;;;;;;;10.60;8.05;;;7.20;99.90;;;;;;6254053;22;20491;-75
2023/01/21 12:15:48;;;;;;;9.45;7.28;;;6.50;99.90;;;;;;6256956;22;20012;-76
2023/01/21 12:18:34;;;;;;;11.38;7.50;;;6.10;99.90;;;;;;6282769;22;20310;-76
2023/01/21 12:21:19;;;;;;;10.57;7.70;;;5.30;99.90;;;;;;6257154;22;20007;-74
2023/01/21 12:24:09;;;;;;;8.90;6.63;;;5.50;99.90;;;;;;6257191;22;20014;-76
2023/01/21 12:26:52;;;;;;;9.23;7.00;;;5.70;99.90;;;;;;6281948;22;20246;-75
2023/01/21 12:29:24;;;;;;;10.20;6.78;;;5.80;99.90;;;;;;6283113;22;20324;-76
2023/01/21 12:32:01;;;;;;;9.30;7.03;;;5.70;99.90;;;;;;6282040;22;20015;-75
2023/01/21 12:35:08;;;;;;;9.55;6.88;;;5.40;99.90;;;;;;6283347;22;20034;-75
2023/01/21 12:37:48;;;;;;;7.72;6.03;;;5.00;99.90;;;;;;6219613;23;20150;-76
2023/01/21 12:40:32;;;;;;;8.65;6.32;;;5.30;99.90;;;;;;6276052;22;20027;-74
2023/01/21 12:43:16;;;;;;;10.07;6.68;;;5.10;99.90;;;;;;6283538;22;20428;-76
2023/01/21 12:45:57;;;;;;;7.40;6.30;;;4.80;99.90;;;;;;6258113;22;20057;-76
2023/01/21 12:48:34;;;;;;;8.75;6.82;;;4.80;99.90;;;;;;6284758;22;20041;-75
2023/01/21 12:51:10;;;;;;;8.00;5.50;;;4.60;99.90;;;;;;6258479;22;20019;-74
2023/01/21 12:54:00;;;;;;;7.25;5.65;;;4.50;99.90;;;;;;6283114;22;20053;-74
2023/01/21 12:56:57;;;;;;;7.13;5.80;;;3.70;99.90;;;;;;6284256;22;20007;-75
2023/01/21 12:59:34;;;;;;;8.73;5.28;;;4.50;99.90;;;;;;6258391;22;20038;-75
2023/01/21 13:02:17;;;;;;;7.40;5.05;;;4.30;99.90;;;;;;6258466;22;20154;-75
2023/01/21 13:04:46;;;;;;;5.63;4.40;;;4.20;99.90;;;;;;6285259;22;20075;-77
2023/01/21 13:07:41;;;;;;;6.03;4.00;;;5.50;99.90;;;;;;6258596;22;20070;-73
2023/01/21 13:10:25;;;;;;;5.82;4.47;;;4.30;99.90;;;;;;6283943;22;20023;-74
2023/01/21 13:13:25;;;;;;;5.97;4.50;;;4.10;99.90;;;;;;6256844;22;20593;-73
2023/01/21 13:15:59;;;;;;;5.60;4.40;;;4.10;99.90;;;;;;6241870;22;20015;-75
2023/01/21 13:18:31;;;;;;;5.70;4.27;;;4.10;99.90;;;;;;6257913;22;20014;-74